sensor_id;sensor_type;location;lat;lon;timestamp;temperature;humidity
71801;HTU21D;59647;55.838;37.292;2022-08-23T00:01:51;24.21;50.52
71801;HTU21D;59647;55.838;37.292;2022-08-23T00:04:22;24.17;51.15
71801;HTU21D;59647;55.838;37.292;2022-08-23T00:06:50;24.14;50.69
71801;HTU21D;59647;55.838;37.292;2022-08-23T00:09:18;24.08;51.01
71801;HTU21D;59647;55.838;37.292;2022-08-23T00:11:51;24.04;51.71
71801;HTU21D;59647;55.838;37.292;2022-08-23T00:14:25;24.01;51.55
71801;HTU21D;59647;55.838;37.292;2022-08-23T00:16:53;23.98;51.35
71801;HTU21D;59647;55.838;37.292;2022-08-23T00:19:20;23.95;51.79
71801;HTU21D;59647;55.838;37.292;2022-08-23T00:21:49;23.96;52.30
71801;HTU21D;59647;55.838;37.292;2022-08-23T00:24:17;23.94;51.91
71801;HTU21D;59647;55.838;37.292;2022-08-23T00:27:15;23.91;53.56
71801;HTU21D;59647;55.838;37.292;2022-08-23T00:29:44;23.90;52.59
71801;HTU21D;59647;55.838;37.292;2022-08-23T00:32:18;23.86;52.59
71801;HTU21D;59647;55.838;37.292;2022-08-23T00:34:46;23.87;52.30
71801;HTU21D;59647;55.838;37.292;2022-08-23T00:37:13;23.86;52.38
71801;HTU21D;59647;55.838;37.292;2022-08-23T00:39:39;23.82;53.03
71801;HTU21D;59647;55.838;37.292;2022-08-23T00:42:56;23.76;53.71
71801;HTU21D;59647;55.838;37.292;2022-08-23T00:45:17;23.72;54.95
71801;HTU21D;59647;55.838;37.292;2022-08-23T00:48:04;23.65;53.35
71801;HTU21D;59647;55.838;37.292;2022-08-23T00:50:35;23.65;53.59
71801;HTU21D;59647;55.838;37.292;2022-08-23T00:53:20;23.66;54.74
71801;HTU21D;59647;55.838;37.292;2022-08-23T00:55:50;23.66;53.68
71801;HTU21D;59647;55.838;37.292;2022-08-23T00:58:19;23.62;53.73
71801;HTU21D;59647;55.838;37.292;2022-08-23T01:00:47;23.56;54.08
71801;HTU21D;59647;55.838;37.292;2022-08-23T01:03:15;23.51;54.55
71801;HTU21D;59647;55.838;37.292;2022-08-23T01:08:15;23.42;54.31
71801;HTU21D;59647;55.838;37.292;2022-08-23T01:10:48;23.42;55.25
71801;HTU21D;59647;55.838;37.292;2022-08-23T01:13:26;23.43;55.57
71801;HTU21D;59647;55.838;37.292;2022-08-23T01:16:02;23.43;55.31
71801;HTU21D;59647;55.838;37.292;2022-08-23T01:18:31;23.36;54.94
71801;HTU21D;59647;55.838;37.292;2022-08-23T01:23:43;23.38;57.35
71801;HTU21D;59647;55.838;37.292;2022-08-23T01:26:13;23.37;55.29
71801;HTU21D;59647;55.838;37.292;2022-08-23T01:28:39;23.34;55.54
71801;HTU21D;59647;55.838;37.292;2022-08-23T01:31:07;23.29;55.63
71801;HTU21D;59647;55.838;37.292;2022-08-23T01:33:34;23.29;55.78
71801;HTU21D;59647;55.838;37.292;2022-08-23T01:36:01;23.30;55.55
71801;HTU21D;59647;55.838;37.292;2022-08-23T01:38:29;23.25;55.49
71801;HTU21D;59647;55.838;37.292;2022-08-23T01:40:55;23.25;55.71
71801;HTU21D;59647;55.838;37.292;2022-08-23T01:43:21;23.27;56.10
71801;HTU21D;59647;55.838;37.292;2022-08-23T01:45:51;23.25;56.13
71801;HTU21D;59647;55.838;37.292;2022-08-23T01:48:20;23.26;55.96
71801;HTU21D;59647;55.838;37.292;2022-08-23T01:50:46;23.26;55.96
71801;HTU21D;59647;55.838;37.292;2022-08-23T01:53:13;23.27;56.15
71801;HTU21D;59647;55.838;37.292;2022-08-23T01:55:45;23.25;55.87
71801;HTU21D;59647;55.838;37.292;2022-08-23T01:58:14;23.24;56.06
71801;HTU21D;59647;55.838;37.292;2022-08-23T02:00:41;23.17;56.27
71801;HTU21D;59647;55.838;37.292;2022-08-23T02:03:12;23.13;56.32
71801;HTU21D;59647;55.838;37.292;2022-08-23T02:05:39;23.11;56.49
71801;HTU21D;59647;55.838;37.292;2022-08-23T02:08:07;23.10;56.42
71801;HTU21D;59647;55.838;37.292;2022-08-23T02:10:54;23.06;56.58
71801;HTU21D;59647;55.838;37.292;2022-08-23T02:13:20;23.03;56.90
71801;HTU21D;59647;55.838;37.292;2022-08-23T02:15:48;23.00;56.98
71801;HTU21D;59647;55.838;37.292;2022-08-23T02:18:18;22.96;57.05
71801;HTU21D;59647;55.838;37.292;2022-08-23T02:20:46;22.95;57.19
71801;HTU21D;59647;55.838;37.292;2022-08-23T02:23:12;22.94;57.32
71801;HTU21D;59647;55.838;37.292;2022-08-23T02:25:39;22.88;57.48
71801;HTU21D;59647;55.838;37.292;2022-08-23T02:28:06;22.88;57.80
71801;HTU21D;59647;55.838;37.292;2022-08-23T02:30:32;22.84;57.45
71801;HTU21D;59647;55.838;37.292;2022-08-23T02:33:00;22.83;58.55
71801;HTU21D;59647;55.838;37.292;2022-08-23T02:35:27;22.82;57.93
71801;HTU21D;59647;55.838;37.292;2022-08-23T02:37:53;22.80;58.08
71801;HTU21D;59647;55.838;37.292;2022-08-23T02:40:20;22.76;58.19
71801;HTU21D;59647;55.838;37.292;2022-08-23T02:42:47;22.80;58.16
71801;HTU21D;59647;55.838;37.292;2022-08-23T02:45:15;22.78;58.32
71801;HTU21D;59647;55.838;37.292;2022-08-23T02:47:46;22.76;58.19
71801;HTU21D;59647;55.838;37.292;2022-08-23T02:50:25;22.77;58.38
71801;HTU21D;59647;55.838;37.292;2022-08-23T02:52:52;22.77;58.61
71801;HTU21D;59647;55.838;37.292;2022-08-23T02:55:20;22.72;58.78
71801;HTU21D;59647;55.838;37.292;2022-08-23T02:57:46;22.75;58.93
71801;HTU21D;59647;55.838;37.292;2022-08-23T03:00:14;22.75;59.25
71801;HTU21D;59647;55.838;37.292;2022-08-23T03:02:40;22.75;58.91
71801;HTU21D;59647;55.838;37.292;2022-08-23T03:05:07;22.77;59.15
71801;HTU21D;59647;55.838;37.292;2022-08-23T03:07:34;22.79;59.06
71801;HTU21D;59647;55.838;37.292;2022-08-23T03:10:00;22.80;59.19
71801;HTU21D;59647;55.838;37.292;2022-08-23T03:12:31;22.82;59.45
71801;HTU21D;59647;55.838;37.292;2022-08-23T03:14:58;22.84;59.43
71801;HTU21D;59647;55.838;37.292;2022-08-23T03:17:24;22.87;59.29
71801;HTU21D;59647;55.838;37.292;2022-08-23T03:19:50;22.91;59.22
71801;HTU21D;59647;55.838;37.292;2022-08-23T03:22:17;22.92;59.30
71801;HTU21D;59647;55.838;37.292;2022-08-23T03:24:44;22.95;59.25
71801;HTU21D;59647;55.838;37.292;2022-08-23T03:27:10;22.96;59.98
71801;HTU21D;59647;55.838;37.292;2022-08-23T03:29:37;22.98;59.56
71801;HTU21D;59647;55.838;37.292;2022-08-23T03:32:04;23.00;59.71
71801;HTU21D;59647;55.838;37.292;2022-08-23T03:34:34;23.07;59.56
71801;HTU21D;59647;55.838;37.292;2022-08-23T03:37:03;23.12;59.48
71801;HTU21D;59647;55.838;37.292;2022-08-23T03:39:29;23.15;59.40
71801;HTU21D;59647;55.838;37.292;2022-08-23T03:41:58;23.24;59.44
71801;HTU21D;59647;55.838;37.292;2022-08-23T03:44:27;23.27;59.53
71801;HTU21D;59647;55.838;37.292;2022-08-23T03:46:52;23.29;59.77
71801;HTU21D;59647;55.838;37.292;2022-08-23T03:49:18;23.36;59.66
71801;HTU21D;59647;55.838;37.292;2022-08-23T03:51:51;23.37;59.90
71801;HTU21D;59647;55.838;37.292;2022-08-23T03:54:18;23.38;60.06
71801;HTU21D;59647;55.838;37.292;2022-08-23T03:56:52;23.41;59.83
71801;HTU21D;59647;55.838;37.292;2022-08-23T03:59:19;23.45;59.90
71801;HTU21D;59647;55.838;37.292;2022-08-23T04:01:46;23.45;60.00
71801;HTU21D;59647;55.838;37.292;2022-08-23T04:04:11;23.47;59.96
71801;HTU21D;59647;55.838;37.292;2022-08-23T04:06:49;23.49;60.04
71801;HTU21D;59647;55.838;37.292;2022-08-23T04:09:15;23.52;60.36
71801;HTU21D;59647;55.838;37.292;2022-08-23T04:11:42;23.55;60.44
71801;HTU21D;59647;55.838;37.292;2022-08-23T04:14:08;23.57;60.42
71801;HTU21D;59647;55.838;37.292;2022-08-23T04:16:35;23.60;60.26
71801;HTU21D;59647;55.838;37.292;2022-08-23T04:19:11;23.58;61.14
71801;HTU21D;59647;55.838;37.292;2022-08-23T04:21:53;23.61;60.46
71801;HTU21D;59647;55.838;37.292;2022-08-23T04:24:19;23.66;60.79
71801;HTU21D;59647;55.838;37.292;2022-08-23T04:26:45;23.71;60.39
71801;HTU21D;59647;55.838;37.292;2022-08-23T04:29:13;23.76;60.57
71801;HTU21D;59647;55.838;37.292;2022-08-23T04:31:43;23.82;60.31
71801;HTU21D;59647;55.838;37.292;2022-08-23T04:34:09;23.85;61.10
71801;HTU21D;59647;55.838;37.292;2022-08-23T04:36:39;23.88;60.51
71801;HTU21D;59647;55.838;37.292;2022-08-23T04:39:05;23.94;60.54
71801;HTU21D;59647;55.838;37.292;2022-08-23T04:41:31;24.00;60.93
71801;HTU21D;59647;55.838;37.292;2022-08-23T04:44:16;24.06;60.50
71801;HTU21D;59647;55.838;37.292;2022-08-23T04:46:43;24.15;60.70
71801;HTU21D;59647;55.838;37.292;2022-08-23T04:49:10;24.21;60.44
71801;HTU21D;59647;55.838;37.292;2022-08-23T04:51:37;24.29;60.31
71801;HTU21D;59647;55.838;37.292;2022-08-23T04:54:03;24.39;60.85
71801;HTU21D;59647;55.838;37.292;2022-08-23T04:56:29;24.47;60.22
71801;HTU21D;59647;55.838;37.292;2022-08-23T04:58:55;24.58;60.54
71801;HTU21D;59647;55.838;37.292;2022-08-23T05:01:24;24.63;60.30
71801;HTU21D;59647;55.838;37.292;2022-08-23T05:03:52;24.66;60.60
71801;HTU21D;59647;55.838;37.292;2022-08-23T05:06:18;24.75;60.14
71801;HTU21D;59647;55.838;37.292;2022-08-23T05:08:43;24.88;59.89
71801;HTU21D;59647;55.838;37.292;2022-08-23T05:11:09;24.99;59.86
71801;HTU21D;59647;55.838;37.292;2022-08-23T05:13:37;25.12;59.96
71801;HTU21D;59647;55.838;37.292;2022-08-23T05:16:06;25.17;59.75
71801;HTU21D;59647;55.838;37.292;2022-08-23T05:18:37;25.23;59.63
71801;HTU21D;59647;55.838;37.292;2022-08-23T05:21:03;25.29;59.44
71801;HTU21D;59647;55.838;37.292;2022-08-23T05:23:29;25.36;59.46
71801;HTU21D;59647;55.838;37.292;2022-08-23T05:26:00;25.40;59.25
71801;HTU21D;59647;55.838;37.292;2022-08-23T05:28:39;25.49;59.31
71801;HTU21D;59647;55.838;37.292;2022-08-23T05:31:12;25.53;59.06
71801;HTU21D;59647;55.838;37.292;2022-08-23T05:33:46;25.62;59.35
71801;HTU21D;59647;55.838;37.292;2022-08-23T05:36:16;25.69;58.94
71801;HTU21D;59647;55.838;37.292;2022-08-23T05:38:43;25.76;58.82
71801;HTU21D;59647;55.838;37.292;2022-08-23T05:41:12;25.81;58.83
71801;HTU21D;59647;55.838;37.292;2022-08-23T05:43:39;25.88;58.80
71801;HTU21D;59647;55.838;37.292;2022-08-23T05:46:14;26.01;58.52
71801;HTU21D;59647;55.838;37.292;2022-08-23T05:48:46;26.19;58.32
71801;HTU21D;59647;55.838;37.292;2022-08-23T05:51:16;26.31;58.18
71801;HTU21D;59647;55.838;37.292;2022-08-23T05:53:44;26.38;58.00
71801;HTU21D;59647;55.838;37.292;2022-08-23T05:56:22;26.45;58.29
71801;HTU21D;59647;55.838;37.292;2022-08-23T05:58:50;26.52;57.73
71801;HTU21D;59647;55.838;37.292;2022-08-23T06:01:17;26.58;57.69
71801;HTU21D;59647;55.838;37.292;2022-08-23T06:03:45;26.68;57.53
71801;HTU21D;59647;55.838;37.292;2022-08-23T06:06:12;26.84;57.28
71801;HTU21D;59647;55.838;37.292;2022-08-23T06:08:42;26.96;57.35
71801;HTU21D;59647;55.838;37.292;2022-08-23T06:11:14;27.14;57.29
71801;HTU21D;59647;55.838;37.292;2022-08-23T06:13:47;27.29;56.92
71801;HTU21D;59647;55.838;37.292;2022-08-23T06:16:15;27.40;56.42
71801;HTU21D;59647;55.838;37.292;2022-08-23T06:18:43;27.55;56.48
71801;HTU21D;59647;55.838;37.292;2022-08-23T06:21:42;27.71;56.15
71801;HTU21D;59647;55.838;37.292;2022-08-23T06:24:08;27.91;55.87
71801;HTU21D;59647;55.838;37.292;2022-08-23T06:26:42;28.08;55.49
71801;HTU21D;59647;55.838;37.292;2022-08-23T06:29:12;28.25;55.33
71801;HTU21D;59647;55.838;37.292;2022-08-23T06:31:45;28.34;54.21
71801;HTU21D;59647;55.838;37.292;2022-08-23T06:37:03;28.70;54.46
71801;HTU21D;59647;55.838;37.292;2022-08-23T06:39:48;28.89;53.68
71801;HTU21D;59647;55.838;37.292;2022-08-23T06:42:32;29.01;53.56
71801;HTU21D;59647;55.838;37.292;2022-08-23T06:45:02;29.14;53.39
71801;HTU21D;59647;55.838;37.292;2022-08-23T06:47:48;29.26;53.13
71801;HTU21D;59647;55.838;37.292;2022-08-23T06:50:14;29.46;53.14
71801;HTU21D;59647;55.838;37.292;2022-08-23T06:52:58;29.71;52.75
71801;HTU21D;59647;55.838;37.292;2022-08-23T06:55:35;29.87;52.37
71801;HTU21D;59647;55.838;37.292;2022-08-23T06:58:24;30.05;52.12
71801;HTU21D;59647;55.838;37.292;2022-08-23T07:04:05;30.26;50.75
71801;HTU21D;59647;55.838;37.292;2022-08-23T07:07:00;30.41;50.76
71801;HTU21D;59647;55.838;37.292;2022-08-23T07:09:28;30.49;50.79
71801;HTU21D;59647;55.838;37.292;2022-08-23T07:11:54;30.62;50.20
71801;HTU21D;59647;55.838;37.292;2022-08-23T07:14:21;30.67;49.03
71801;HTU21D;59647;55.838;37.292;2022-08-23T07:16:57;30.66;48.78
71801;HTU21D;59647;55.838;37.292;2022-08-23T07:19:28;30.78;49.80
71801;HTU21D;59647;55.838;37.292;2022-08-23T07:21:55;30.85;48.82
71801;HTU21D;59647;55.838;37.292;2022-08-23T07:24:22;30.87;48.91
71801;HTU21D;59647;55.838;37.292;2022-08-23T07:26:51;30.85;48.80
71801;HTU21D;59647;55.838;37.292;2022-08-23T07:29:19;30.83;48.22
71801;HTU21D;59647;55.838;37.292;2022-08-23T07:31:51;30.83;47.55
71801;HTU21D;59647;55.838;37.292;2022-08-23T07:34:18;30.80;48.24
71801;HTU21D;59647;55.838;37.292;2022-08-23T07:36:46;30.70;48.70
71801;HTU21D;59647;55.838;37.292;2022-08-23T07:39:13;30.67;48.76
71801;HTU21D;59647;55.838;37.292;2022-08-23T07:41:39;30.50;48.84
71801;HTU21D;59647;55.838;37.292;2022-08-23T07:44:08;30.38;48.98
71801;HTU21D;59647;55.838;37.292;2022-08-23T07:46:37;30.26;48.25
71801;HTU21D;59647;55.838;37.292;2022-08-23T07:49:05;30.24;48.78
71801;HTU21D;59647;55.838;37.292;2022-08-23T07:51:36;30.18;48.78
71801;HTU21D;59647;55.838;37.292;2022-08-23T07:54:05;30.18;47.92
71801;HTU21D;59647;55.838;37.292;2022-08-23T07:56:35;30.22;48.47
71801;HTU21D;59647;55.838;37.292;2022-08-23T07:59:07;30.15;48.23
71801;HTU21D;59647;55.838;37.292;2022-08-23T08:01:54;30.17;48.45
71801;HTU21D;59647;55.838;37.292;2022-08-23T08:04:22;30.23;48.40
71801;HTU21D;59647;55.838;37.292;2022-08-23T08:06:49;30.23;48.39
71801;HTU21D;59647;55.838;37.292;2022-08-23T08:09:18;30.22;48.57
71801;HTU21D;59647;55.838;37.292;2022-08-23T08:11:47;30.21;48.90
71801;HTU21D;59647;55.838;37.292;2022-08-23T08:14:15;30.27;48.92
71801;HTU21D;59647;55.838;37.292;2022-08-23T08:16:53;30.24;48.60
71801;HTU21D;59647;55.838;37.292;2022-08-23T08:19:40;30.16;48.44
71801;HTU21D;59647;55.838;37.292;2022-08-23T08:22:24;30.22;48.35
71801;HTU21D;59647;55.838;37.292;2022-08-23T08:25:06;30.21;48.39
71801;HTU21D;59647;55.838;37.292;2022-08-23T08:27:34;30.21;48.66
71801;HTU21D;59647;55.838;37.292;2022-08-23T08:30:00;30.23;48.74
71801;HTU21D;59647;55.838;37.292;2022-08-23T08:32:28;30.30;48.73
71801;HTU21D;59647;55.838;37.292;2022-08-23T08:34:54;30.34;48.55
71801;HTU21D;59647;55.838;37.292;2022-08-23T08:37:20;30.38;48.19
71801;HTU21D;59647;55.838;37.292;2022-08-23T08:39:46;30.39;48.06
71801;HTU21D;59647;55.838;37.292;2022-08-23T08:45:09;30.34;47.76
71801;HTU21D;59647;55.838;37.292;2022-08-23T08:48:07;30.25;47.41
71801;HTU21D;59647;55.838;37.292;2022-08-23T08:50:53;30.30;47.98
71801;HTU21D;59647;55.838;37.292;2022-08-23T08:53:34;30.46;48.31
71801;HTU21D;59647;55.838;37.292;2022-08-23T08:56:26;30.50;48.83
71801;HTU21D;59647;55.838;37.292;2022-08-23T08:59:12;30.47;48.73
71801;HTU21D;59647;55.838;37.292;2022-08-23T09:01:40;30.59;48.67
71801;HTU21D;59647;55.838;37.292;2022-08-23T09:04:06;30.60;50.08
71801;HTU21D;59647;55.838;37.292;2022-08-23T09:12:32;30.87;49.02
71801;HTU21D;59647;55.838;37.292;2022-08-23T09:17:46;30.90;49.27
71801;HTU21D;59647;55.838;37.292;2022-08-23T09:20:16;31.04;49.01
71801;HTU21D;59647;55.838;37.292;2022-08-23T09:22:49;31.19;49.15
71801;HTU21D;59647;55.838;37.292;2022-08-23T09:25:25;31.51;48.47
71801;HTU21D;59647;55.838;37.292;2022-08-23T09:28:00;31.76;47.12
71801;HTU21D;59647;55.838;37.292;2022-08-23T09:30:48;32.07;42.15
71801;HTU21D;59647;55.838;37.292;2022-08-23T09:33:31;32.41;44.25
71801;HTU21D;59647;55.838;37.292;2022-08-23T09:38:35;32.64;44.45
71801;HTU21D;59647;55.838;37.292;2022-08-23T09:41:15;32.81;42.19
71801;HTU21D;59647;55.838;37.292;2022-08-23T09:43:45;33.00;43.45
71801;HTU21D;59647;55.838;37.292;2022-08-23T09:46:32;33.26;41.61
71801;HTU21D;59647;55.838;37.292;2022-08-23T09:48:59;0.00;0.00
71801;HTU21D;59647;55.838;37.292;2022-08-23T09:51:36;33.59;38.84
71801;HTU21D;59647;55.838;37.292;2022-08-23T09:54:17;33.64;40.58
71801;HTU21D;59647;55.838;37.292;2022-08-23T09:56:51;33.70;38.82
71801;HTU21D;59647;55.838;37.292;2022-08-23T09:59:28;33.90;40.54
71801;HTU21D;59647;55.838;37.292;2022-08-23T10:02:03;34.19;40.42
71801;HTU21D;59647;55.838;37.292;2022-08-23T10:09:47;34.40;38.92
71801;HTU21D;59647;55.838;37.292;2022-08-23T10:12:13;34.51;38.83
71801;HTU21D;59647;55.838;37.292;2022-08-23T10:14:39;34.69;38.63
71801;HTU21D;59647;55.838;37.292;2022-08-23T10:22:14;35.27;33.84
71801;HTU21D;59647;55.838;37.292;2022-08-23T10:25:54;35.30;31.31
71801;HTU21D;59647;55.838;37.292;2022-08-23T10:33:56;35.68;32.74
71801;HTU21D;59647;55.838;37.292;2022-08-23T10:36:46;35.85;32.70
71801;HTU21D;59647;55.838;37.292;2022-08-23T10:39:27;36.04;29.63
71801;HTU21D;59647;55.838;37.292;2022-08-23T10:42:10;36.14;29.64
71801;HTU21D;59647;55.838;37.292;2022-08-23T10:44:53;36.11;31.28
71801;HTU21D;59647;55.838;37.292;2022-08-23T10:48:18;36.09;26.32
71801;HTU21D;59647;55.838;37.292;2022-08-23T10:50:26;36.00;31.72
71801;HTU21D;59647;55.838;37.292;2022-08-23T10:53:01;36.07;30.65
71801;HTU21D;59647;55.838;37.292;2022-08-23T10:55:37;36.22;27.18
71801;HTU21D;59647;55.838;37.292;2022-08-23T10:58:23;36.30;28.97
71801;HTU21D;59647;55.838;37.292;2022-08-23T11:00:54;36.32;28.84
71801;HTU21D;59647;55.838;37.292;2022-08-23T11:03:31;36.41;27.91
71801;HTU21D;59647;55.838;37.292;2022-08-23T11:06:22;36.48;27.47
71801;HTU21D;59647;55.838;37.292;2022-08-23T11:09:06;36.52;28.00
71801;HTU21D;59647;55.838;37.292;2022-08-23T11:11:41;36.51;29.84
71801;HTU21D;59647;55.838;37.292;2022-08-23T11:14:11;36.57;23.14
71801;HTU21D;59647;55.838;37.292;2022-08-23T11:16:39;36.70;30.08
71801;HTU21D;59647;55.838;37.292;2022-08-23T11:19:13;36.91;26.28
71801;HTU21D;59647;55.838;37.292;2022-08-23T11:22:19;37.10;25.70
71801;HTU21D;59647;55.838;37.292;2022-08-23T11:27:39;36.98;25.90
71801;HTU21D;59647;55.838;37.292;2022-08-23T11:33:24;37.29;23.82
71801;HTU21D;59647;55.838;37.292;2022-08-23T11:36:16;37.07;26.11
71801;HTU21D;59647;55.838;37.292;2022-08-23T12:00:51;37.48;27.18
71801;HTU21D;59647;55.838;37.292;2022-08-23T12:03:29;0.00;0.00
71801;HTU21D;59647;55.838;37.292;2022-08-23T12:08:30;37.97;24.90
71801;HTU21D;59647;55.838;37.292;2022-08-23T12:11:00;37.82;20.40
71801;HTU21D;59647;55.838;37.292;2022-08-23T12:13:51;37.51;20.92
71801;HTU21D;59647;55.838;37.292;2022-08-23T12:23:45;36.87;24.29
71801;HTU21D;59647;55.838;37.292;2022-08-23T12:26:31;36.78;21.68
71801;HTU21D;59647;55.838;37.292;2022-08-23T12:32:53;36.67;23.98
71801;HTU21D;59647;55.838;37.292;2022-08-23T12:43:59;35.55;24.20
71801;HTU21D;59647;55.838;37.292;2022-08-23T12:46:46;35.34;24.30
71801;HTU21D;59647;55.838;37.292;2022-08-23T12:49:29;35.15;25.02
71801;HTU21D;59647;55.838;37.292;2022-08-23T12:51:58;35.10;26.39
71801;HTU21D;59647;55.838;37.292;2022-08-23T12:54:34;34.95;25.81
71801;HTU21D;59647;55.838;37.292;2022-08-23T12:57:02;34.89;26.88
71801;HTU21D;59647;55.838;37.292;2022-08-23T12:59:38;34.74;26.94
71801;HTU21D;59647;55.838;37.292;2022-08-23T13:02:10;34.63;26.87
71801;HTU21D;59647;55.838;37.292;2022-08-23T13:04:38;34.53;27.20
71801;HTU21D;59647;55.838;37.292;2022-08-23T13:07:09;34.40;26.76
71801;HTU21D;59647;55.838;37.292;2022-08-23T13:09:38;34.26;26.79
71801;HTU21D;59647;55.838;37.292;2022-08-23T13:12:06;34.17;27.08
71801;HTU21D;59647;55.838;37.292;2022-08-23T13:19:57;33.83;27.57
71801;HTU21D;59647;55.838;37.292;2022-08-23T13:22:36;33.67;27.65
71801;HTU21D;59647;55.838;37.292;2022-08-23T13:27:34;33.51;28.40
71801;HTU21D;59647;55.838;37.292;2022-08-23T13:30:03;33.43;28.78
71801;HTU21D;59647;55.838;37.292;2022-08-23T13:32:34;33.34;28.69
71801;HTU21D;59647;55.838;37.292;2022-08-23T13:37:55;33.14;28.92
71801;HTU21D;59647;55.838;37.292;2022-08-23T13:40:26;33.08;28.89
71801;HTU21D;59647;55.838;37.292;2022-08-23T13:43:02;33.06;28.39
71801;HTU21D;59647;55.838;37.292;2022-08-23T13:45:34;33.02;28.34
71801;HTU21D;59647;55.838;37.292;2022-08-23T13:48:16;32.96;29.27
71801;HTU21D;59647;55.838;37.292;2022-08-23T13:50:44;32.88;29.53
71801;HTU21D;59647;55.838;37.292;2022-08-23T13:53:10;32.84;29.77
71801;HTU21D;59647;55.838;37.292;2022-08-23T13:55:55;32.74;31.77
71801;HTU21D;59647;55.838;37.292;2022-08-23T13:58:29;32.58;30.29
71801;HTU21D;59647;55.838;37.292;2022-08-23T14:00:56;32.57;30.67
71801;HTU21D;59647;55.838;37.292;2022-08-23T14:03:23;32.59;30.76
71801;HTU21D;59647;55.838;37.292;2022-08-23T14:05:50;32.63;30.93
71801;HTU21D;59647;55.838;37.292;2022-08-23T14:08:17;32.68;31.09
71801;HTU21D;59647;55.838;37.292;2022-08-23T14:10:44;32.70;31.17
71801;HTU21D;59647;55.838;37.292;2022-08-23T14:13:12;32.81;31.34
71801;HTU21D;59647;55.838;37.292;2022-08-23T14:15:43;32.88;31.48
71801;HTU21D;59647;55.838;37.292;2022-08-23T14:18:10;32.93;31.41
71801;HTU21D;59647;55.838;37.292;2022-08-23T14:20:37;32.91;31.68
71801;HTU21D;59647;55.838;37.292;2022-08-23T14:23:03;32.90;31.57
71801;HTU21D;59647;55.838;37.292;2022-08-23T14:25:29;32.90;31.49
71801;HTU21D;59647;55.838;37.292;2022-08-23T14:27:55;32.86;31.48
71801;HTU21D;59647;55.838;37.292;2022-08-23T14:30:29;32.78;31.66
71801;HTU21D;59647;55.838;37.292;2022-08-23T14:32:57;32.78;31.77
71801;HTU21D;59647;55.838;37.292;2022-08-23T14:35:23;32.81;31.97
71801;HTU21D;59647;55.838;37.292;2022-08-23T14:37:49;32.79;32.12
71801;HTU21D;59647;55.838;37.292;2022-08-23T14:40:15;32.78;32.24
71801;HTU21D;59647;55.838;37.292;2022-08-23T14:42:42;32.79;32.48
71801;HTU21D;59647;55.838;37.292;2022-08-23T14:45:08;32.74;32.83
71801;HTU21D;59647;55.838;37.292;2022-08-23T14:47:34;32.68;33.17
71801;HTU21D;59647;55.838;37.292;2022-08-23T14:50:01;32.69;33.49
71801;HTU21D;59647;55.838;37.292;2022-08-23T14:52:28;32.69;33.42
71801;HTU21D;59647;55.838;37.292;2022-08-23T14:54:54;32.67;33.28
71801;HTU21D;59647;55.838;37.292;2022-08-23T14:57:20;32.67;33.19
71801;HTU21D;59647;55.838;37.292;2022-08-23T14:59:46;32.62;34.07
71801;HTU21D;59647;55.838;37.292;2022-08-23T15:02:12;32.58;33.84
71801;HTU21D;59647;55.838;37.292;2022-08-23T15:04:40;32.58;33.93
71801;HTU21D;59647;55.838;37.292;2022-08-23T15:07:06;32.42;35.09
71801;HTU21D;59647;55.838;37.292;2022-08-23T15:09:32;32.40;36.05
71801;HTU21D;59647;55.838;37.292;2022-08-23T15:11:58;32.43;35.53
71801;HTU21D;59647;55.838;37.292;2022-08-23T15:14:24;32.44;34.76
71801;HTU21D;59647;55.838;37.292;2022-08-23T15:16:50;32.39;35.24
71801;HTU21D;59647;55.838;37.292;2022-08-23T15:19:16;32.27;36.13
71801;HTU21D;59647;55.838;37.292;2022-08-23T15:21:42;32.17;36.63
71801;HTU21D;59647;55.838;37.292;2022-08-23T15:24:07;32.05;37.77
71801;HTU21D;59647;55.838;37.292;2022-08-23T15:26:34;31.95;39.21
71801;HTU21D;59647;55.838;37.292;2022-08-23T15:29:00;31.87;39.16
71801;HTU21D;59647;55.838;37.292;2022-08-23T15:31:26;31.89;37.90
71801;HTU21D;59647;55.838;37.292;2022-08-23T15:33:52;31.92;37.30
71801;HTU21D;59647;55.838;37.292;2022-08-23T15:36:18;31.95;36.62
71801;HTU21D;59647;55.838;37.292;2022-08-23T15:38:45;31.95;35.57
71801;HTU21D;59647;55.838;37.292;2022-08-23T15:41:16;31.89;35.48
71801;HTU21D;59647;55.838;37.292;2022-08-23T15:43:43;31.86;35.41
71801;HTU21D;59647;55.838;37.292;2022-08-23T15:46:21;31.81;34.65
71801;HTU21D;59647;55.838;37.292;2022-08-23T15:51:22;31.69;34.84
71801;HTU21D;59647;55.838;37.292;2022-08-23T15:53:49;31.66;34.38
71801;HTU21D;59647;55.838;37.292;2022-08-23T15:56:21;31.59;34.31
71801;HTU21D;59647;55.838;37.292;2022-08-23T15:58:54;31.54;34.67
71801;HTU21D;59647;55.838;37.292;2022-08-23T16:01:23;31.45;34.66
71801;HTU21D;59647;55.838;37.292;2022-08-23T16:03:50;31.41;34.47
71801;HTU21D;59647;55.838;37.292;2022-08-23T16:06:16;31.36;34.48
71801;HTU21D;59647;55.838;37.292;2022-08-23T16:08:44;31.30;34.18
71801;HTU21D;59647;55.838;37.292;2022-08-23T16:11:11;31.25;34.37
71801;HTU21D;59647;55.838;37.292;2022-08-23T16:13:40;31.20;34.24
71801;HTU21D;59647;55.838;37.292;2022-08-23T16:16:22;31.12;33.92
71801;HTU21D;59647;55.838;37.292;2022-08-23T16:18:49;31.05;34.20
71801;HTU21D;59647;55.838;37.292;2022-08-23T16:21:16;30.99;34.25
71801;HTU21D;59647;55.838;37.292;2022-08-23T16:23:42;30.90;34.21
71801;HTU21D;59647;55.838;37.292;2022-08-23T16:26:11;30.83;34.28
71801;HTU21D;59647;55.838;37.292;2022-08-23T16:28:40;30.77;34.31
71801;HTU21D;59647;55.838;37.292;2022-08-23T16:31:05;30.69;34.51
71801;HTU21D;59647;55.838;37.292;2022-08-23T16:33:31;30.60;34.61
71801;HTU21D;59647;55.838;37.292;2022-08-23T16:35:57;30.54;34.56
71801;HTU21D;59647;55.838;37.292;2022-08-23T16:38:23;30.47;34.63
71801;HTU21D;59647;55.838;37.292;2022-08-23T16:40:49;30.39;34.67
71801;HTU21D;59647;55.838;37.292;2022-08-23T16:43:14;30.31;34.85
71801;HTU21D;59647;55.838;37.292;2022-08-23T16:45:40;30.24;34.89
71801;HTU21D;59647;55.838;37.292;2022-08-23T16:48:06;30.17;34.85
71801;HTU21D;59647;55.838;37.292;2022-08-23T16:50:32;30.11;34.83
71801;HTU21D;59647;55.838;37.292;2022-08-23T16:52:58;30.08;34.86
71801;HTU21D;59647;55.838;37.292;2022-08-23T16:55:24;30.00;35.07
71801;HTU21D;59647;55.838;37.292;2022-08-23T16:57:50;29.94;35.12
71801;HTU21D;59647;55.838;37.292;2022-08-23T17:00:16;29.85;35.34
71801;HTU21D;59647;55.838;37.292;2022-08-23T17:02:42;29.77;35.43
71801;HTU21D;59647;55.838;37.292;2022-08-23T17:05:12;29.70;35.61
71801;HTU21D;59647;55.838;37.292;2022-08-23T17:07:38;29.63;35.67
71801;HTU21D;59647;55.838;37.292;2022-08-23T17:10:06;29.56;35.77
71801;HTU21D;59647;55.838;37.292;2022-08-23T17:12:34;29.50;36.02